sensor_id;sensor_type;location;lat;lon;timestamp;pressure;altitude;pressure_sealevel;temperature;humidity
60479;BME280;46321;48.398;11.754;2024-01-15T00:02:16;95329.94;;;-5.30;nan
60479;BME280;46321;48.398;11.754;2024-01-15T00:04:41;95314.75;;;-5.21;nan
60479;BME280;46321;48.398;11.754;2024-01-15T00:07:07;95314.63;;;-5.07;nan
60479;BME280;46321;48.398;11.754;2024-01-15T00:09:32;95311.88;;;-4.92;nan
60479;BME280;46321;48.398;11.754;2024-01-15T00:11:59;95316.56;;;-4.73;nan
60479;BME280;46321;48.398;11.754;2024-01-15T00:14:24;95313.56;;;-4.42;nan
60479;BME280;46321;48.398;11.754;2024-01-15T00:16:50;95306.78;;;-4.31;nan
60479;BME280;46321;48.398;11.754;2024-01-15T00:19:17;95313.41;;;-4.16;nan
60479;BME280;46321;48.398;11.754;2024-01-15T00:21:42;95316.47;;;-4.10;nan
60479;BME280;46321;48.398;11.754;2024-01-15T00:24:07;95313.56;;;-4.06;nan
60479;BME280;46321;48.398;11.754;2024-01-15T00:26:33;95318.03;;;-3.96;nan
60479;BME280;46321;48.398;11.754;2024-01-15T00:28:58;95316.88;;;-3.92;nan
60479;BME280;46321;48.398;11.754;2024-01-15T00:31:23;95311.34;;;-3.87;nan
60479;BME280;46321;48.398;11.754;2024-01-15T00:33:48;95321.69;;;-3.87;nan
60479;BME280;46321;48.398;11.754;2024-01-15T00:36:14;95334.91;;;-3.79;nan
60479;BME280;46321;48.398;11.754;2024-01-15T00:38:40;95329.59;;;-3.77;nan
60479;BME280;46321;48.398;11.754;2024-01-15T00:41:05;95319.75;;;-3.72;nan
60479;BME280;46321;48.398;11.754;2024-01-15T00:43:30;95337.50;;;-3.68;nan
60479;BME280;46321;48.398;11.754;2024-01-15T00:45:55;95345.16;;;-3.66;nan
60479;BME280;46321;48.398;11.754;2024-01-15T00:48:21;95344.56;;;-3.58;nan
60479;BME280;46321;48.398;11.754;2024-01-15T00:50:46;95346.00;;;-3.54;nan
60479;BME280;46321;48.398;11.754;2024-01-15T00:53:11;95341.63;;;-3.53;nan
60479;BME280;46321;48.398;11.754;2024-01-15T00:55:37;95337.84;;;-3.49;nan
60479;BME280;46321;48.398;11.754;2024-01-15T00:58:03;95330.34;;;-3.52;nan
60479;BME280;46321;48.398;11.754;2024-01-15T01:00:28;95344.47;;;-3.57;nan
60479;BME280;46321;48.398;11.754;2024-01-15T01:02:53;95338.56;;;-3.59;nan
60479;BME280;46321;48.398;11.754;2024-01-15T01:05:19;95350.81;;;-3.49;nan
60479;BME280;46321;48.398;11.754;2024-01-15T01:07:44;95345.88;;;-3.52;nan
60479;BME280;46321;48.398;11.754;2024-01-15T01:10:09;95355.19;;;-3.50;nan
60479;BME280;46321;48.398;11.754;2024-01-15T01:12:34;95344.91;;;-3.63;nan
60479;BME280;46321;48.398;11.754;2024-01-15T01:15:00;95351.50;;;-3.59;nan
60479;BME280;46321;48.398;11.754;2024-01-15T01:17:25;95353.28;;;-3.59;nan
60479;BME280;46321;48.398;11.754;2024-01-15T01:19:51;95348.69;;;-3.56;nan
60479;BME280;46321;48.398;11.754;2024-01-15T01:22:16;95349.50;;;-3.55;nan
60479;BME280;46321;48.398;11.754;2024-01-15T01:24:41;95348.09;;;-3.59;nan
60479;BME280;46321;48.398;11.754;2024-01-15T01:27:06;95353.97;;;-3.57;nan
60479;BME280;46321;48.398;11.754;2024-01-15T01:29:32;95370.34;;;-3.57;nan
60479;BME280;46321;48.398;11.754;2024-01-15T01:31:57;95366.69;;;-3.54;nan
60479;BME280;46321;48.398;11.754;2024-01-15T01:34:22;95368.66;;;-3.58;nan
60479;BME280;46321;48.398;11.754;2024-01-15T01:36:48;95374.47;;;-3.54;nan
60479;BME280;46321;48.398;11.754;2024-01-15T01:39:13;95375.94;;;-3.63;nan
60479;BME280;46321;48.398;11.754;2024-01-15T01:41:39;95379.47;;;-3.64;nan
60479;BME280;46321;48.398;11.754;2024-01-15T01:44:04;95385.03;;;-3.57;nan
60479;BME280;46321;48.398;11.754;2024-01-15T01:46:30;95382.22;;;-3.54;nan
60479;BME280;46321;48.398;11.754;2024-01-15T01:48:56;95385.59;;;-3.53;nan
60479;BME280;46321;48.398;11.754;2024-01-15T01:51:23;95377.75;;;-3.52;nan
60479;BME280;46321;48.398;11.754;2024-01-15T01:53:50;95387.63;;;-3.46;nan
60479;BME280;46321;48.398;11.754;2024-01-15T01:56:15;95384.34;;;-3.48;nan
60479;BME280;46321;48.398;11.754;2024-01-15T01:58:42;95382.81;;;-3.39;nan
60479;BME280;46321;48.398;11.754;2024-01-15T02:01:07;95386.56;;;-3.31;nan
60479;BME280;46321;48.398;11.754;2024-01-15T02:03:33;95383.78;;;-3.28;nan
60479;BME280;46321;48.398;11.754;2024-01-15T02:06:00;95381.53;;;-3.22;nan
60479;BME280;46321;48.398;11.754;2024-01-15T02:08:26;95377.19;;;-3.21;nan
60479;BME280;46321;48.398;11.754;2024-01-15T02:10:51;95376.94;;;-3.18;nan
60479;BME280;46321;48.398;11.754;2024-01-15T02:13:17;95372.59;;;-3.17;nan
60479;BME280;46321;48.398;11.754;2024-01-15T02:15:43;95376.59;;;-3.13;nan
60479;BME280;46321;48.398;11.754;2024-01-15T02:18:08;95381.69;;;-3.12;nan
60479;BME280;46321;48.398;11.754;2024-01-15T02:20:33;95376.50;;;-3.12;nan
60479;BME280;46321;48.398;11.754;2024-01-15T02:25:34;95375.31;;;-3.07;nan
60479;BME280;46321;48.398;11.754;2024-01-15T02:28:01;95372.94;;;-3.11;nan
60479;BME280;46321;48.398;11.754;2024-01-15T02:30:27;95375.66;;;-3.12;nan
60479;BME280;46321;48.398;11.754;2024-01-15T02:32:53;95369.28;;;-3.31;nan
60479;BME280;46321;48.398;11.754;2024-01-15T02:35:18;95363.53;;;-3.35;nan
60479;BME280;46321;48.398;11.754;2024-01-15T02:37:44;95374.09;;;-3.38;nan
60479;BME280;46321;48.398;11.754;2024-01-15T02:40:09;95372.56;;;-3.40;nan
60479;BME280;46321;48.398;11.754;2024-01-15T02:42:34;95373.75;;;-3.45;nan
60479;BME280;46321;48.398;11.754;2024-01-15T02:45:00;95379.38;;;-3.51;nan
60479;BME280;46321;48.398;11.754;2024-01-15T02:47:25;95383.84;;;-3.53;nan
60479;BME280;46321;48.398;11.754;2024-01-15T02:49:50;95379.84;;;-3.57;nan
60479;BME280;46321;48.398;11.754;2024-01-15T02:52:16;95383.00;;;-3.65;nan
60479;BME280;46321;48.398;11.754;2024-01-15T02:54:41;95383.81;;;-3.64;nan
60479;BME280;46321;48.398;11.754;2024-01-15T02:57:06;95381.25;;;-3.64;nan
60479;BME280;46321;48.398;11.754;2024-01-15T02:59:31;95379.47;;;-3.64;nan
60479;BME280;46321;48.398;11.754;2024-01-15T03:01:57;95386.03;;;-3.71;nan
60479;BME280;46321;48.398;11.754;2024-01-15T03:04:22;95390.50;;;-3.73;nan
60479;BME280;46321;48.398;11.754;2024-01-15T03:06:47;95377.09;;;-3.79;nan
60479;BME280;46321;48.398;11.754;2024-01-15T03:09:12;95386.38;;;-3.76;nan
60479;BME280;46321;48.398;11.754;2024-01-15T03:11:38;95384.03;;;-3.79;nan
60479;BME280;46321;48.398;11.754;2024-01-15T03:14:04;95389.44;;;-3.82;nan
60479;BME280;46321;48.398;11.754;2024-01-15T03:16:29;95390.13;;;-3.80;nan
60479;BME280;46321;48.398;11.754;2024-01-15T03:18:54;95389.44;;;-3.82;nan
60479;BME280;46321;48.398;11.754;2024-01-15T03:21:20;95393.06;;;-3.85;nan
60479;BME280;46321;48.398;11.754;2024-01-15T03:23:45;95391.31;;;-3.84;nan
60479;BME280;46321;48.398;11.754;2024-01-15T03:26:10;95380.69;;;-3.93;nan
60479;BME280;46321;48.398;11.754;2024-01-15T03:28:35;95374.38;;;-3.88;nan
60479;BME280;46321;48.398;11.754;2024-01-15T03:31:01;95380.78;;;-3.94;nan
60479;BME280;46321;48.398;11.754;2024-01-15T03:33:26;95374.19;;;-3.98;nan
60479;BME280;46321;48.398;11.754;2024-01-15T03:35:51;95373.03;;;-4.06;nan
60479;BME280;46321;48.398;11.754;2024-01-15T03:38:16;95370.44;;;-4.06;nan
60479;BME280;46321;48.398;11.754;2024-01-15T03:40:42;95363.09;;;-4.12;nan
60479;BME280;46321;48.398;11.754;2024-01-15T03:43:07;95369.81;;;-4.09;nan
60479;BME280;46321;48.398;11.754;2024-01-15T03:45:32;95369.81;;;-4.09;nan
60479;BME280;46321;48.398;11.754;2024-01-15T03:47:57;95372.66;;;-4.12;nan
60479;BME280;46321;48.398;11.754;2024-01-15T03:50:23;95374.94;;;-4.21;nan
60479;BME280;46321;48.398;11.754;2024-01-15T03:52:48;95370.94;;;-4.25;nan
60479;BME280;46321;48.398;11.754;2024-01-15T03:55:13;95372.34;;;-4.21;nan
60479;BME280;46321;48.398;11.754;2024-01-15T03:57:38;95365.66;;;-4.23;nan
60479;BME280;46321;48.398;11.754;2024-01-15T04:00:04;95380.00;;;-4.19;nan
60479;BME280;46321;48.398;11.754;2024-01-15T04:02:30;95373.84;;;-4.30;nan
60479;BME280;46321;48.398;11.754;2024-01-15T04:04:55;95373.47;;;-4.37;nan
60479;BME280;46321;48.398;11.754;2024-01-15T04:07:20;95367.56;;;-4.39;nan
60479;BME280;46321;48.398;11.754;2024-01-15T04:09:46;95378.03;;;-4.40;nan
60479;BME280;46321;48.398;11.754;2024-01-15T04:12:11;95371.19;;;-4.41;nan
60479;BME280;46321;48.398;11.754;2024-01-15T04:14:36;95376.00;;;-4.48;nan
60479;BME280;46321;48.398;11.754;2024-01-15T04:17:01;95372.69;;;-4.50;nan
60479;BME280;46321;48.398;11.754;2024-01-15T04:19:27;95376.00;;;-4.48;nan
60479;BME280;46321;48.398;11.754;2024-01-15T04:21:52;95372.69;;;-4.50;nan
60479;BME280;46321;48.398;11.754;2024-01-15T04:24:17;95374.56;;;-4.52;nan
60479;BME280;46321;48.398;11.754;2024-01-15T04:26:43;95376.41;;;-4.54;nan
60479;BME280;46321;48.398;11.754;2024-01-15T04:29:08;95376.34;;;-4.53;nan
60479;BME280;46321;48.398;11.754;2024-01-15T04:31:33;95373.97;;;-4.56;nan
60479;BME280;46321;48.398;11.754;2024-01-15T04:33:59;95380.16;;;-4.58;nan
60479;BME280;46321;48.398;11.754;2024-01-15T04:36:24;95377.69;;;-4.60;nan
60479;BME280;46321;48.398;11.754;2024-01-15T04:38:49;95371.50;;;-4.57;nan
60479;BME280;46321;48.398;11.754;2024-01-15T04:41:16;95373.97;;;-4.56;nan
60479;BME280;46321;48.398;11.754;2024-01-15T04:43:41;95374.88;;;-4.57;nan
60479;BME280;46321;48.398;11.754;2024-01-15T04:46:07;95373.50;;;-4.50;nan
60479;BME280;46321;48.398;11.754;2024-01-15T04:48:32;95374.22;;;-4.48;nan
60479;BME280;46321;48.398;11.754;2024-01-15T04:50:58;95374.84;;;-4.44;nan
60479;BME280;46321;48.398;11.754;2024-01-15T04:53:23;95372.34;;;-4.45;nan
60479;BME280;46321;48.398;11.754;2024-01-15T04:55:48;95367.19;;;-4.45;nan
60479;BME280;46321;48.398;11.754;2024-01-15T04:58:13;95370.59;;;-4.45;nan
60479;BME280;46321;48.398;11.754;2024-01-15T05:00:39;95359.03;;;-4.39;nan
60479;BME280;46321;48.398;11.754;2024-01-15T05:03:04;95359.56;;;-4.47;nan
60479;BME280;46321;48.398;11.754;2024-01-15T05:05:29;95364.00;;;-4.49;nan
60479;BME280;46321;48.398;11.754;2024-01-15T05:07:55;95366.72;;;-4.51;nan
60479;BME280;46321;48.398;11.754;2024-01-15T05:10:20;95364.44;;;-4.55;nan
60479;BME280;46321;48.398;11.754;2024-01-15T05:12:45;95362.34;;;-4.50;nan
60479;BME280;46321;48.398;11.754;2024-01-15T05:15:10;95361.94;;;-4.44;nan
60479;BME280;46321;48.398;11.754;2024-01-15T05:17:36;95362.66;;;-4.42;nan
60479;BME280;46321;48.398;11.754;2024-01-15T05:20:01;95365.56;;;-4.46;nan
60479;BME280;46321;48.398;11.754;2024-01-15T05:22:27;95365.81;;;-4.38;nan
60479;BME280;46321;48.398;11.754;2024-01-15T05:24:52;95368.03;;;-4.45;nan
60479;BME280;46321;48.398;11.754;2024-01-15T05:27:18;95369.56;;;-4.42;nan
60479;BME280;46321;48.398;11.754;2024-01-15T05:29:43;95366.00;;;-4.28;nan
60479;BME280;46321;48.398;11.754;2024-01-15T05:32:08;95369.38;;;-4.28;nan
60479;BME280;46321;48.398;11.754;2024-01-15T05:34:34;95370.00;;;-4.24;nan
60479;BME280;46321;48.398;11.754;2024-01-15T05:36:59;95363.63;;;-4.31;nan
60479;BME280;46321;48.398;11.754;2024-01-15T05:39:25;95353.06;;;-4.28;nan
60479;BME280;46321;48.398;11.754;2024-01-15T05:41:50;95352.13;;;-4.27;nan
60479;BME280;46321;48.398;11.754;2024-01-15T05:44:15;95344.50;;;-4.29;nan
60479;BME280;46321;48.398;11.754;2024-01-15T05:46:40;95349.88;;;-4.32;nan
60479;BME280;46321;48.398;11.754;2024-01-15T05:49:06;95357.63;;;-4.32;nan
60479;BME280;46321;48.398;11.754;2024-01-15T05:51:31;95342.75;;;-4.28;nan
60479;BME280;46321;48.398;11.754;2024-01-15T05:53:56;95351.22;;;-4.26;nan
60479;BME280;46321;48.398;11.754;2024-01-15T05:56:21;95351.47;;;-4.18;nan
60479;BME280;46321;48.398;11.754;2024-01-15T05:58:49;95348.66;;;-4.15;nan
60479;BME280;46321;48.398;11.754;2024-01-15T06:01:14;95344.22;;;-4.12;nan
60479;BME280;46321;48.398;11.754;2024-01-15T06:03:39;95344.22;;;-4.12;nan
60479;BME280;46321;48.398;11.754;2024-01-15T06:06:04;95349.97;;;-4.09;nan
60479;BME280;46321;48.398;11.754;2024-01-15T06:08:30;95353.13;;;-4.17;nan
60479;BME280;46321;48.398;11.754;2024-01-15T06:10:56;95359.72;;;-4.12;nan
60479;BME280;46321;48.398;11.754;2024-01-15T06:13:21;95359.63;;;-3.99;nan
60479;BME280;46321;48.398;11.754;2024-01-15T06:15:46;95359.19;;;-3.93;nan
60479;BME280;46321;48.398;11.754;2024-01-15T06:18:12;95363.66;;;-3.95;nan
60479;BME280;46321;48.398;11.754;2024-01-15T06:20:37;95369.06;;;-3.87;nan
60479;BME280;46321;48.398;11.754;2024-01-15T06:23:03;95364.84;;;-3.88;nan
60479;BME280;46321;48.398;11.754;2024-01-15T06:25:29;95362.63;;;-3.81;nan
60479;BME280;46321;48.398;11.754;2024-01-15T06:27:54;95362.41;;;-3.78;nan
60479;BME280;46321;48.398;11.754;2024-01-15T06:30:19;95361.34;;;-3.75;nan
60479;BME280;46321;48.398;11.754;2024-01-15T06:32:44;95353.25;;;-3.71;nan
60479;BME280;46321;48.398;11.754;2024-01-15T06:35:10;95364.44;;;-3.70;nan
60479;BME280;46321;48.398;11.754;2024-01-15T06:37:36;95353.75;;;-3.65;nan
60479;BME280;46321;48.398;11.754;2024-01-15T06:40:02;95355.38;;;-3.64;nan
60479;BME280;46321;48.398;11.754;2024-01-15T06:42:28;95344.91;;;-3.63;nan
60479;BME280;46321;48.398;11.754;2024-01-15T06:44:53;95328.31;;;-3.60;nan
60479;BME280;46321;48.398;11.754;2024-01-15T06:47:18;95323.06;;;-3.59;nan
60479;BME280;46321;48.398;11.754;2024-01-15T06:49:44;95330.22;;;-3.51;nan
60479;BME280;46321;48.398;11.754;2024-01-15T06:52:09;95343.41;;;-3.54;nan
60479;BME280;46321;48.398;11.754;2024-01-15T06:54:34;95334.91;;;-3.56;nan
60479;BME280;46321;48.398;11.754;2024-01-15T06:57:00;95334.00;;;-3.43;nan
60479;BME280;46321;48.398;11.754;2024-01-15T06:59:25;95334.00;;;-3.43;nan
60479;BME280;46321;48.398;11.754;2024-01-15T07:01:50;95336.81;;;-3.35;nan
60479;BME280;46321;48.398;11.754;2024-01-15T07:04:15;95347.66;;;-3.41;nan
60479;BME280;46321;48.398;11.754;2024-01-15T07:06:41;95344.38;;;-3.32;nan
60479;BME280;46321;48.398;11.754;2024-01-15T07:09:06;95334.00;;;-3.20;nan
60479;BME280;46321;48.398;11.754;2024-01-15T07:11:32;95337.19;;;-3.17;nan
60479;BME280;46321;48.398;11.754;2024-01-15T07:13:58;95344.81;;;-3.15;nan
60479;BME280;46321;48.398;11.754;2024-01-15T07:16:23;95346.47;;;-3.14;nan
60479;BME280;46321;48.398;11.754;2024-01-15T07:18:48;95339.63;;;-3.04;nan
60479;BME280;46321;48.398;11.754;2024-01-15T07:21:14;95346.81;;;-2.96;nan
60479;BME280;46321;48.398;11.754;2024-01-15T07:23:39;95344.69;;;-2.91;nan
60479;BME280;46321;48.398;11.754;2024-01-15T07:26:04;95338.56;;;-2.90;nan
60479;BME280;46321;48.398;11.754;2024-01-15T07:28:30;95332.78;;;-2.93;nan
60479;BME280;46321;48.398;11.754;2024-01-15T07:30:56;95324.56;;;-2.87;nan
60479;BME280;46321;48.398;11.754;2024-01-15T07:33:21;95306.88;;;-2.82;nan
60479;BME280;46321;48.398;11.754;2024-01-15T07:35:46;95307.34;;;-2.77;nan
60479;BME280;46321;48.398;11.754;2024-01-15T07:38:11;95305.91;;;-2.69;nan
60479;BME280;46321;48.398;11.754;2024-01-15T07:40:37;95320.00;;;-2.62;nan
60479;BME280;46321;48.398;11.754;2024-01-15T07:43:02;95331.53;;;-2.55;nan
60479;BME280;46321;48.398;11.754;2024-01-15T07:45:27;95331.41;;;-2.53;nan
60479;BME280;46321;48.398;11.754;2024-01-15T07:47:53;95328.94;;;-2.43;nan
60479;BME280;46321;48.398;11.754;2024-01-15T07:50:18;95331.84;;;-2.36;nan
60479;BME280;46321;48.398;11.754;2024-01-15T07:52:43;95332.88;;;-2.27;nan
60479;BME280;46321;48.398;11.754;2024-01-15T07:55:09;95336.81;;;-2.33;nan
60479;BME280;46321;48.398;11.754;2024-01-15T07:57:34;95327.56;;;-2.26;nan
60479;BME280;46321;48.398;11.754;2024-01-15T08:00:01;95327.09;;;-2.20;nan
60479;BME280;46321;48.398;11.754;2024-01-15T08:02:26;95316.72;;;-2.20;nan
60479;BME280;46321;48.398;11.754;2024-01-15T08:04:52;95316.63;;;-2.08;nan
60479;BME280;46321;48.398;11.754;2024-01-15T08:07:17;95306.81;;;-1.93;nan
60479;BME280;46321;48.398;11.754;2024-01-15T08:09:43;95324.13;;;-1.72;nan
60479;BME280;46321;48.398;11.754;2024-01-15T08:12:08;95322.88;;;-0.84;nan
60479;BME280;46321;48.398;11.754;2024-01-15T08:14:35;95315.72;;;-0.20;nan
60479;BME280;46321;48.398;11.754;2024-01-15T08:17:00;95307.22;;;-0.03;nan
60479;BME280;46321;48.398;11.754;2024-01-15T08:19:26;95306.22;;;-0.02;nan
60479;BME280;46321;48.398;11.754;2024-01-15T08:21:52;95291.69;;;0.26;nan
60479;BME280;46321;48.398;11.754;2024-01-15T08:24:18;95293.13;;;0.58;nan
60479;BME280;46321;48.398;11.754;2024-01-15T08:26:43;95288.41;;;0.24;nan
60479;BME280;46321;48.398;11.754;2024-01-15T08:29:08;95292.66;;;0.15;nan
60479;BME280;46321;48.398;11.754;2024-01-15T08:31:34;95283.94;;;-0.14;nan
60479;BME280;46321;48.398;11.754;2024-01-15T08:33:59;95281.47;;;-0.16;nan
60479;BME280;46321;48.398;11.754;2024-01-15T08:36:27;95263.28;;;-0.16;nan
60479;BME280;46321;48.398;11.754;2024-01-15T08:38:52;95264.34;;;-0.28;nan
60479;BME280;46321;48.398;11.754;2024-01-15T08:41:17;95259.31;;;-0.30;nan
60479;BME280;46321;48.398;11.754;2024-01-15T08:43:42;95266.28;;;-0.20;nan
60479;BME280;46321;48.398;11.754;2024-01-15T08:46:08;95246.53;;;-0.13;nan
60479;BME280;46321;48.398;11.754;2024-01-15T08:48:33;95261.31;;;-0.04;nan
60479;BME280;46321;48.398;11.754;2024-01-15T08:50:59;95261.47;;;-0.05;nan
60479;BME280;46321;48.398;11.754;2024-01-15T08:53:24;95257.22;;;-0.06;nan
60479;BME280;46321;48.398;11.754;2024-01-15T08:55:49;95245.72;;;-0.04;nan
60479;BME280;46321;48.398;11.754;2024-01-15T08:58:15;95262.38;;;0.24;nan
60479;BME280;46321;48.398;11.754;2024-01-15T09:00:40;95271.63;;;0.46;nan
60479;BME280;46321;48.398;11.754;2024-01-15T09:03:06;95284.72;;;0.64;nan
60479;BME280;46321;48.398;11.754;2024-01-15T09:05:31;95292.38;;;1.69;nan
60479;BME280;46321;48.398;11.754;2024-01-15T09:07:56;95287.88;;;3.73;nan
60479;BME280;46321;48.398;11.754;2024-01-15T09:10:22;95292.91;;;5.07;nan
60479;BME280;46321;48.398;11.754;2024-01-15T09:12:47;95291.09;;;6.26;nan
60479;BME280;46321;48.398;11.754;2024-01-15T09:15:14;95274.69;;;8.11;nan
60479;BME280;46321;48.398;11.754;2024-01-15T09:17:39;95282.81;;;8.96;nan
60479;BME280;46321;48.398;11.754;2024-01-15T09:20:05;95280.94;;;8.32;nan
60479;BME280;46321;48.398;11.754;2024-01-15T09:22:31;95280.91;;;6.77;nan
60479;BME280;46321;48.398;11.754;2024-01-15T09:24:56;95269.06;;;5.80;nan
60479;BME280;46321;48.398;11.754;2024-01-15T09:27:22;95273.44;;;4.44;nan
60479;BME280;46321;48.398;11.754;2024-01-15T09:29:47;95279.69;;;3.84;nan
60479;BME280;46321;48.398;11.754;2024-01-15T09:32:12;95275.03;;;3.28;nan
60479;BME280;46321;48.398;11.754;2024-01-15T09:34:38;95281.34;;;2.73;nan
60479;BME280;46321;48.398;11.754;2024-01-15T09:37:04;95295.75;;;2.51;nan
60479;BME280;46321;48.398;11.754;2024-01-15T09:39:29;95299.53;;;2.03;nan
60479;BME280;46321;48.398;11.754;2024-01-15T09:41:56;95296.59;;;2.06;nan
60479;BME280;46321;48.398;11.754;2024-01-15T09:44:21;95309.78;;;2.23;nan
60479;BME280;46321;48.398;11.754;2024-01-15T09:46:47;95312.28;;;2.33;nan
60479;BME280;46321;48.398;11.754;2024-01-15T09:49:16;95306.50;;;2.21;nan
60479;BME280;46321;48.398;11.754;2024-01-15T09:51:42;95313.94;;;1.89;nan
60479;BME280;46321;48.398;11.754;2024-01-15T09:54:07;95316.38;;;1.91;nan
60479;BME280;46321;48.398;11.754;2024-01-15T09:56:33;95313.03;;;1.99;nan
60479;BME280;46321;48.398;11.754;2024-01-15T09:59:00;95307.72;;;2.09;nan
60479;BME280;46321;48.398;11.754;2024-01-15T10:01:25;95314.72;;;2.53;nan
60479;BME280;46321;48.398;11.754;2024-01-15T10:03:51;95302.56;;;3.57;nan
60479;BME280;46321;48.398;11.754;2024-01-15T10:06:17;95295.94;;;3.28;nan
60479;BME280;46321;48.398;11.754;2024-01-15T10:08:47;95309.91;;;3.02;nan
60479;BME280;46321;48.398;11.754;2024-01-15T10:11:13;95299.56;;;2.30;nan
60479;BME280;46321;48.398;11.754;2024-01-15T10:13:39;95301.50;;;2.28;nan
60479;BME280;46321;48.398;11.754;2024-01-15T10:16:04;95291.81;;;2.02;nan
60479;BME280;46321;48.398;11.754;2024-01-15T10:18:30;95282.69;;;1.61;nan
60479;BME280;46321;48.398;11.754;2024-01-15T10:20:56;95279.88;;;1.54;nan
60479;BME280;46321;48.398;11.754;2024-01-15T10:23:23;95269.88;;;1.50;nan
60479;BME280;46321;48.398;11.754;2024-01-15T10:25:49;95259.22;;;1.43;nan
60479;BME280;46321;48.398;11.754;2024-01-15T10:28:16;95248.78;;;1.43;nan
60479;BME280;46321;48.398;11.754;2024-01-15T10:30:41;95252.78;;;1.55;nan
60479;BME280;46321;48.398;11.754;2024-01-15T10:33:06;95254.91;;;1.70;nan
60479;BME280;46321;48.398;11.754;2024-01-15T10:35:33;95261.13;;;1.77;nan
60479;BME280;46321;48.398;11.754;2024-01-15T10:37:59;95258.75;;;1.84;nan
60479;BME280;46321;48.398;11.754;2024-01-15T10:40:25;95247.28;;;2.48;nan
60479;BME280;46321;48.398;11.754;2024-01-15T10:42:51;95249.69;;;2.85;nan
60479;BME280;46321;48.398;11.754;2024-01-15T10:45:17;95228.66;;;9.97;nan
60479;BME280;46321;48.398;11.754;2024-01-15T10:47:42;95212.78;;;13.42;nan
60479;BME280;46321;48.398;11.754;2024-01-15T10:50:08;95226.69;;;9.23;nan
60479;BME280;46321;48.398;11.754;2024-01-15T10:52:35;95238.06;;;7.14;nan
60479;BME280;46321;48.398;11.754;2024-01-15T10:55:01;95248.50;;;6.31;nan
60479;BME280;46321;48.398;11.754;2024-01-15T10:57:28;95240.25;;;5.48;nan
60479;BME280;46321;48.398;11.754;2024-01-15T10:59:54;95247.25;;;5.24;nan
60479;BME280;46321;48.398;11.754;2024-01-15T11:02:19;95247.34;;;5.08;nan
60479;BME280;46321;48.398;11.754;2024-01-15T11:04:45;95249.91;;;4.84;nan
60479;BME280;46321;48.398;11.754;2024-01-15T11:07:10;95248.94;;;4.03;nan
60479;BME280;46321;48.398;11.754;2024-01-15T11:09:36;95243.38;;;3.98;nan
60479;BME280;46321;48.398;11.754;2024-01-15T11:12:11;95240.09;;;3.79;nan
60479;BME280;46321;48.398;11.754;2024-01-15T11:14:41;95244.31;;;4.39;nan
60479;BME280;46321;48.398;11.754;2024-01-15T11:17:10;95223.66;;;14.74;nan
60479;BME280;46321;48.398;11.754;2024-01-15T11:22:08;95197.22;;;23.62;nan
60479;BME280;46321;48.398;11.754;2024-01-15T11:24:38;95184.03;;;26.11;nan
60479;BME280;46321;48.398;11.754;2024-01-15T11:27:05;95179.28;;;26.17;nan
60479;BME280;46321;48.398;11.754;2024-01-15T11:29:36;95183.47;;;25.63;nan
60479;BME280;46321;48.398;11.754;2024-01-15T11:32:06;95176.88;;;26.38;nan
60479;BME280;46321;48.398;11.754;2024-01-15T11:34:54;95173.97;;;26.35;nan
60479;BME280;46321;48.398;11.754;2024-01-15T11:37:20;95185.88;;;25.65;nan
60479;BME280;46321;48.398;11.754;2024-01-15T11:39:47;95176.16;;;26.01;nan
60479;BME280;46321;48.398;11.754;2024-01-15T11:42:13;95167.25;;;26.55;nan
60479;BME280;46321;48.398;11.754;2024-01-15T11:44:40;95163.59;;;26.60;nan
60479;BME280;46321;48.398;11.754;2024-01-15T11:47:07;95172.63;;;23.20;nan
60479;BME280;46321;48.398;11.754;2024-01-15T11:52:23;95183.38;;;11.98;nan
60479;BME280;46321;48.398;11.754;2024-01-15T11:57:50;95183.38;;;8.61;nan
60479;BME280;46321;48.398;11.754;2024-01-15T12:00:16;95172.59;;;7.70;nan
60479;BME280;46321;48.398;11.754;2024-01-15T12:02:43;95183.44;;;7.16;nan
60479;BME280;46321;48.398;11.754;2024-01-15T12:05:09;95170.34;;;6.70;nan
60479;BME280;46321;48.398;11.754;2024-01-15T12:07:37;95171.28;;;6.32;nan
60479;BME280;46321;48.398;11.754;2024-01-15T12:10:03;95167.88;;;5.69;nan
60479;BME280;46321;48.398;11.754;2024-01-15T12:15:10;95159.91;;;5.15;nan
60479;BME280;46321;48.398;11.754;2024-01-15T12:17:35;95168.59;;;5.63;nan
60479;BME280;46321;48.398;11.754;2024-01-15T12:20:03;95159.88;;;5.86;nan
60479;BME280;46321;48.398;11.754;2024-01-15T12:22:28;95140.50;;;5.48;nan
60479;BME280;46321;48.398;11.754;2024-01-15T12:24:54;95142.75;;;5.52;nan
60479;BME280;46321;48.398;11.754;2024-01-15T12:27:20;95145.47;;;5.20;nan
60479;BME280;46321;48.398;11.754;2024-01-15T12:29:45;95152.66;;;4.94;nan
60479;BME280;46321;48.398;11.754;2024-01-15T12:32:12;95149.47;;;5.07;nan
60479;BME280;46321;48.398;11.754;2024-01-15T12:34:37;95157.34;;;5.07;nan
60479;BME280;46321;48.398;11.754;2024-01-15T12:37:02;95159.81;;;5.32;nan
60479;BME280;46321;48.398;11.754;2024-01-15T12:39:28;95156.63;;;5.22;nan
60479;BME280;46321;48.398;11.754;2024-01-15T12:41:53;95156.19;;;5.10;nan
60479;BME280;46321;48.398;11.754;2024-01-15T12:44:18;95145.19;;;4.83;nan
60479;BME280;46321;48.398;11.754;2024-01-15T12:46:44;95141.75;;;4.42;nan
60479;BME280;46321;48.398;11.754;2024-01-15T12:49:09;95129.25;;;4.20;nan
60479;BME280;46321;48.398;11.754;2024-01-15T12:51:35;95134.00;;;4.08;nan
60479;BME280;46321;48.398;11.754;2024-01-15T12:54:00;95141.28;;;3.73;nan
60479;BME280;46321;48.398;11.754;2024-01-15T12:56:25;95149.50;;;3.45;nan
60479;BME280;46321;48.398;11.754;2024-01-15T12:58:50;95151.25;;;3.19;nan
60479;BME280;46321;48.398;11.754;2024-01-15T13:01:16;95147.69;;;3.20;nan
60479;BME280;46321;48.398;11.754;2024-01-15T13:03:41;95142.25;;;3.05;nan
60479;BME280;46321;48.398;11.754;2024-01-15T13:06:07;95138.34;;;3.17;nan
60479;BME280;46321;48.398;11.754;2024-01-15T13:08:32;95155.31;;;2.96;nan
60479;BME280;46321;48.398;11.754;2024-01-15T13:10:57;95148.88;;;2.74;nan
60479;BME280;46321;48.398;11.754;2024-01-15T13:13:23;95147.41;;;2.71;nan
60479;BME280;46321;48.398;11.754;2024-01-15T13:15:48;95147.38;;;2.63;nan
60479;BME280;46321;48.398;11.754;2024-01-15T13:18:13;95148.69;;;2.59;nan
60479;BME280;46321;48.398;11.754;2024-01-15T13:20:39;95153.75;;;2.60;nan